sensor_id;sensor_type;location;lat;lon;timestamp;pressure;altitude;pressure_sealevel;temperature;humidity
27980;BME280;15315;50.836;4.430;2022-12-29T00:06:35;99643.94;;;11.82;100.00
27980;BME280;15315;50.836;4.430;2022-12-29T00:16:36;99637.44;;;12.69;100.00
27980;BME280;15315;50.836;4.430;2022-12-29T00:26:37;99622.50;;;12.74;100.00
27980;BME280;15315;50.836;4.430;2022-12-29T00:36:56;99613.97;;;12.69;100.00
27980;BME280;15315;50.836;4.430;2022-12-29T00:46:57;99628.72;;;12.84;100.00
27980;BME280;15315;50.836;4.430;2022-12-29T00:56:57;99613.91;;;12.88;100.00
27980;BME280;15315;50.836;4.430;2022-12-29T01:06:58;99613.84;;;12.61;100.00
27980;BME280;15315;50.836;4.430;2022-12-29T01:16:58;99612.75;;;12.54;100.00
27980;BME280;15315;50.836;4.430;2022-12-29T01:26:58;99629.09;;;12.43;100.00
27980;BME280;15315;50.836;4.430;2022-12-29T01:36:59;99623.16;;;12.40;100.00
27980;BME280;15315;50.836;4.430;2022-12-29T01:46:59;99620.78;;;12.08;100.00
27980;BME280;15315;50.836;4.430;2022-12-29T01:57:02;99618.78;;;12.19;100.00
27980;BME280;15315;50.836;4.430;2022-12-29T02:07:08;99600.78;;;12.47;100.00
27980;BME280;15315;50.836;4.430;2022-12-29T02:27:32;99617.34;;;12.34;100.00
27980;BME280;15315;50.836;4.430;2022-12-29T02:37:40;99628.47;;;12.03;100.00
27980;BME280;15315;50.836;4.430;2022-12-29T02:47:54;99622.59;;;11.40;100.00
27980;BME280;15315;50.836;4.430;2022-12-29T02:58:26;99588.97;;;10.95;100.00
27980;BME280;15315;50.836;4.430;2022-12-29T03:08:49;99625.28;;;10.81;100.00
27980;BME280;15315;50.836;4.430;2022-12-29T03:19:03;99638.97;;;10.69;100.00
27980;BME280;15315;50.836;4.430;2022-12-29T03:29:06;99628.19;;;10.69;100.00
27980;BME280;15315;50.836;4.430;2022-12-29T03:39:12;99650.25;;;10.53;100.00
27980;BME280;15315;50.836;4.430;2022-12-29T03:49:13;99625.22;;;11.02;100.00
27980;BME280;15315;50.836;4.430;2022-12-29T03:59:14;99627.09;;;10.81;100.00
27980;BME280;15315;50.836;4.430;2022-12-29T04:09:14;99630.25;;;10.86;100.00
27980;BME280;15315;50.836;4.430;2022-12-29T04:19:14;99633.69;;;10.97;100.00
27980;BME280;15315;50.836;4.430;2022-12-29T04:29:15;99629.19;;;10.68;100.00
27980;BME280;15315;50.836;4.430;2022-12-29T04:39:15;99634.59;;;10.77;100.00
27980;BME280;15315;50.836;4.430;2022-12-29T04:49:16;99665.16;;;10.87;100.00
27980;BME280;15315;50.836;4.430;2022-12-29T04:59:16;99660.66;;;10.97;100.00
27980;BME280;15315;50.836;4.430;2022-12-29T05:09:16;99668.34;;;11.02;100.00
27980;BME280;15315;50.836;4.430;2022-12-29T05:19:17;99660.97;;;10.43;100.00
27980;BME280;15315;50.836;4.430;2022-12-29T05:29:17;99675.59;;;10.71;100.00
27980;BME280;15315;50.836;4.430;2022-12-29T05:39:18;99673.09;;;10.79;100.00
27980;BME280;15315;50.836;4.430;2022-12-29T05:49:18;99657.25;;;10.65;100.00
27980;BME280;15315;50.836;4.430;2022-12-29T05:59:18;99686.97;;;10.13;100.00
27980;BME280;15315;50.836;4.430;2022-12-29T06:09:19;99705.34;;;10.70;100.00
27980;BME280;15315;50.836;4.430;2022-12-29T06:19:19;99702.16;;;10.55;100.00
27980;BME280;15315;50.836;4.430;2022-12-29T06:29:19;99708.66;;;10.53;100.00
27980;BME280;15315;50.836;4.430;2022-12-29T06:39:20;99717.25;;;10.46;100.00
27980;BME280;15315;50.836;4.430;2022-12-29T06:49:21;99721.22;;;10.63;100.00
27980;BME280;15315;50.836;4.430;2022-12-29T06:59:21;99734.69;;;10.84;100.00
27980;BME280;15315;50.836;4.430;2022-12-29T07:09:22;99745.06;;;10.88;100.00
27980;BME280;15315;50.836;4.430;2022-12-29T07:19:22;99745.00;;;10.26;100.00
27980;BME280;15315;50.836;4.430;2022-12-29T07:29:23;99745.06;;;10.68;100.00
27980;BME280;15315;50.836;4.430;2022-12-29T07:39:23;99780.25;;;10.66;100.00
27980;BME280;15315;50.836;4.430;2022-12-29T07:49:23;99766.94;;;10.74;100.00
27980;BME280;15315;50.836;4.430;2022-12-29T07:59:24;99792.66;;;10.58;100.00
27980;BME280;15315;50.836;4.430;2022-12-29T08:09:24;99802.84;;;10.54;100.00
27980;BME280;15315;50.836;4.430;2022-12-29T08:19:24;99785.84;;;10.54;100.00
27980;BME280;15315;50.836;4.430;2022-12-29T08:29:25;99806.59;;;11.04;100.00
27980;BME280;15315;50.836;4.430;2022-12-29T08:39:25;99811.25;;;11.23;100.00
27980;BME280;15315;50.836;4.430;2022-12-29T08:49:26;99822.78;;;10.83;100.00
27980;BME280;15315;50.836;4.430;2022-12-29T08:59:26;99837.13;;;11.25;100.00
27980;BME280;15315;50.836;4.430;2022-12-29T09:09:26;99843.22;;;11.27;100.00
27980;BME280;15315;50.836;4.430;2022-12-29T09:19:27;99850.81;;;11.94;100.00
27980;BME280;15315;50.836;4.430;2022-12-29T09:29:27;99879.47;;;11.55;100.00
27980;BME280;15315;50.836;4.430;2022-12-29T09:39:27;99904.09;;;11.20;100.00
27980;BME280;15315;50.836;4.430;2022-12-29T09:59:44;99939.72;;;12.16;100.00
27980;BME280;15315;50.836;4.430;2022-12-29T10:10:54;99951.63;;;11.73;100.00
27980;BME280;15315;50.836;4.430;2022-12-29T10:20:57;99989.50;;;11.62;100.00
27980;BME280;15315;50.836;4.430;2022-12-29T10:30:59;99972.25;;;12.35;100.00
27980;BME280;15315;50.836;4.430;2022-12-29T10:41:07;99977.84;;;11.62;100.00
27980;BME280;15315;50.836;4.430;2022-12-29T10:51:20;99986.16;;;12.00;100.00
27980;BME280;15315;50.836;4.430;2022-12-29T11:01:22;100006.09;;;12.39;100.00
27980;BME280;15315;50.836;4.430;2022-12-29T11:11:33;100008.41;;;12.83;100.00
27980;BME280;15315;50.836;4.430;2022-12-29T11:21:36;100036.28;;;12.84;100.00
27980;BME280;15315;50.836;4.430;2022-12-29T11:31:43;100044.72;;;13.10;100.00
27980;BME280;15315;50.836;4.430;2022-12-29T11:41:51;100042.81;;;12.81;100.00
27980;BME280;15315;50.836;4.430;2022-12-29T11:51:53;100057.91;;;12.44;100.00
27980;BME280;15315;50.836;4.430;2022-12-29T12:01:57;100070.81;;;12.10;100.00
27980;BME280;15315;50.836;4.430;2022-12-29T12:11:59;100075.34;;;13.10;100.00
27980;BME280;15315;50.836;4.430;2022-12-29T12:32:54;100077.25;;;12.70;100.00
27980;BME280;15315;50.836;4.430;2022-12-29T13:14:17;100088.94;;;12.50;100.00
27980;BME280;15315;50.836;4.430;2022-12-29T13:45:13;100103.63;;;12.26;100.00
27980;BME280;15315;50.836;4.430;2022-12-29T13:55:45;100103.34;;;12.80;100.00
27980;BME280;15315;50.836;4.430;2022-12-29T14:06:04;100106.34;;;12.06;100.00
27980;BME280;15315;50.836;4.430;2022-12-29T14:16:29;100093.06;;;12.03;100.00
27980;BME280;15315;50.836;4.430;2022-12-29T14:47:05;100111.13;;;12.23;100.00
27980;BME280;15315;50.836;4.430;2022-12-29T14:57:14;100152.06;;;12.39;100.00
27980;BME280;15315;50.836;4.430;2022-12-29T15:07:17;100168.47;;;12.26;100.00
27980;BME280;15315;50.836;4.430;2022-12-29T15:17:25;100398.13;;;9.73;100.00
27980;BME280;15315;50.836;4.430;2022-12-29T15:27:26;100254.44;;;9.27;100.00
27980;BME280;15315;50.836;4.430;2022-12-29T15:37:32;100217.66;;;10.68;100.00
27980;BME280;15315;50.836;4.430;2022-12-29T15:47:33;100209.13;;;10.39;100.00
27980;BME280;15315;50.836;4.430;2022-12-29T15:57:42;100231.47;;;10.53;100.00
27980;BME280;15315;50.836;4.430;2022-12-29T16:07:55;100260.78;;;10.68;100.00
27980;BME280;15315;50.836;4.430;2022-12-29T16:17:57;100267.09;;;11.02;100.00
27980;BME280;15315;50.836;4.430;2022-12-29T16:27:59;100272.34;;;11.37;100.00
27980;BME280;15315;50.836;4.430;2022-12-29T16:38:21;100271.13;;;11.30;100.00
27980;BME280;15315;50.836;4.430;2022-12-29T16:48:25;100277.91;;;10.67;100.00
27980;BME280;15315;50.836;4.430;2022-12-29T16:58:27;100289.63;;;10.20;100.00
27980;BME280;15315;50.836;4.430;2022-12-29T17:08:40;100286.38;;;10.04;100.00
27980;BME280;15315;50.836;4.430;2022-12-29T17:18:40;100293.59;;;9.67;100.00
27980;BME280;15315;50.836;4.430;2022-12-29T17:28:41;100314.44;;;9.89;100.00
27980;BME280;15315;50.836;4.430;2022-12-29T17:38:41;100330.09;;;9.71;100.00
27980;BME280;15315;50.836;4.430;2022-12-29T17:48:41;100348.16;;;9.82;100.00
27980;BME280;15315;50.836;4.430;2022-12-29T17:58:42;100361.59;;;9.20;100.00
27980;BME280;15315;50.836;4.430;2022-12-29T18:08:42;100359.38;;;8.88;100.00
27980;BME280;15315;50.836;4.430;2022-12-29T18:18:44;100375.63;;;8.99;100.00
27980;BME280;15315;50.836;4.430;2022-12-29T18:28:45;100377.56;;;8.97;100.00
27980;BME280;15315;50.836;4.430;2022-12-29T18:38:48;100390.97;;;8.72;100.00
27980;BME280;15315;50.836;4.430;2022-12-29T18:48:50;100398.81;;;9.27;100.00
27980;BME280;15315;50.836;4.430;2022-12-29T18:58:51;100399.13;;;9.22;100.00
27980;BME280;15315;50.836;4.430;2022-12-29T19:08:55;100418.91;;;9.21;100.00
27980;BME280;15315;50.836;4.430;2022-12-29T19:18:56;100429.09;;;9.03;100.00
27980;BME280;15315;50.836;4.430;2022-12-29T19:28:59;100434.75;;;9.13;100.00
27980;BME280;15315;50.836;4.430;2022-12-29T19:38:59;100424.00;;;8.86;100.00
27980;BME280;15315;50.836;4.430;2022-12-29T19:48:59;100436.97;;;9.06;100.00
27980;BME280;15315;50.836;4.430;2022-12-29T19:59:00;100448.19;;;8.86;100.00
27980;BME280;15315;50.836;4.430;2022-12-29T20:09:01;100432.41;;;8.94;100.00
27980;BME280;15315;50.836;4.430;2022-12-29T20:19:02;100447.19;;;8.48;100.00
27980;BME280;15315;50.836;4.430;2022-12-29T20:29:03;100467.59;;;9.68;100.00
27980;BME280;15315;50.836;4.430;2022-12-29T20:39:07;100455.72;;;9.20;100.00
27980;BME280;15315;50.836;4.430;2022-12-29T20:49:08;100447.22;;;8.75;100.00
27980;BME280;15315;50.836;4.430;2022-12-29T20:59:08;100463.34;;;8.75;100.00
27980;BME280;15315;50.836;4.430;2022-12-29T21:09:09;100474.25;;;8.98;100.00
27980;BME280;15315;50.836;4.430;2022-12-29T21:19:09;100482.09;;;9.28;100.00
27980;BME280;15315;50.836;4.430;2022-12-29T21:29:09;100481.75;;;9.20;100.00
27980;BME280;15315;50.836;4.430;2022-12-29T21:39:10;100482.44;;;9.49;100.00
27980;BME280;15315;50.836;4.430;2022-12-29T21:49:12;100489.19;;;9.29;100.00
27980;BME280;15315;50.836;4.430;2022-12-29T21:59:14;100497.84;;;9.72;100.00
27980;BME280;15315;50.836;4.430;2022-12-29T22:09:33;100514.50;;;9.52;100.00
27980;BME280;15315;50.836;4.430;2022-12-29T22:19:53;100529.06;;;10.00;100.00
27980;BME280;15315;50.836;4.430;2022-12-29T22:29:53;100530.16;;;9.72;100.00
27980;BME280;15315;50.836;4.430;2022-12-29T22:39:53;100542.41;;;10.01;100.00
27980;BME280;15315;50.836;4.430;2022-12-29T22:49:54;100561.22;;;9.51;100.00
27980;BME280;15315;50.836;4.430;2022-12-29T22:59:55;100554.97;;;9.50;100.00
27980;BME280;15315;50.836;4.430;2022-12-29T23:09:55;100552.66;;;9.71;100.00
27980;BME280;15315;50.836;4.430;2022-12-29T23:19:55;100558.75;;;9.60;100.00
27980;BME280;15315;50.836;4.430;2022-12-29T23:29:56;100558.13;;;9.17;100.00
27980;BME280;15315;50.836;4.430;2022-12-29T23:39:56;100566.06;;;8.92;100.00
27980;BME280;15315;50.836;4.430;2022-12-29T23:49:56;100569.75;;;9.18;100.00
27980;BME280;15315;50.836;4.430;2022-12-29T23:59:57;100565.28;;;9.31;100.00
